PGT59HJ LTAJ-LTCG
Flight info
| Callsign | PGT59HJ |
|---|---|
| Flight time | 0h 50m |
| Altitude | 37000 |
| Route | BUPUN UT142 ASKER UW701 EZS UW88 ERN UT166 PIXAP |
| Aircraft | A320/M-SDE3FGHIRWY/LB1 |
Departure
| Time | 2026-04-25 10:24 |
|---|---|
| Airport | Gaziantep Oğuzeli International Airport (LTAJ) |
Arrival
| Time | 2026-04-25 11:14 |
|---|---|
| Airport | Trabzon International Airport (LTCG) |
| Time | Latitude | Longitude | Altitude | Speed | Heading |
|---|---|---|---|---|---|
| 2026-04-25 09:57 | 36.94496 | 37.47755 | 2225 ft | 0 kts | 193° |
| 2026-04-25 10:15 | 36.94505 | 37.47758 | 2221 ft | 4 kts | 193° |
| 2026-04-25 10:15 | 36.94527 | 37.47765 | 2222 ft | 4 kts | 194° |
| 2026-04-25 10:16 | 36.94552 | 37.47775 | 2221 ft | 4 kts | 206° |
| 2026-04-25 10:16 | 36.94574 | 37.47793 | 2221 ft | 4 kts | 228° |
| 2026-04-25 10:16 | 36.94584 | 37.47810 | 2221 ft | 1 kts | 243° |
| 2026-04-25 10:16 | 36.94585 | 37.47813 | 2221 ft | 0 kts | 243° |
| 2026-04-25 10:18 | 36.94586 | 37.47807 | 2221 ft | 1 kts | 270° |
| 2026-04-25 10:19 | 36.94603 | 37.47795 | 2222 ft | 4 kts | 356° |
| 2026-04-25 10:19 | 36.94647 | 37.47786 | 2223 ft | 7 kts | 298° |
| 2026-04-25 10:19 | 36.94671 | 37.47699 | 2224 ft | 14 kts | 289° |
| 2026-04-25 10:19 | 36.94703 | 37.47575 | 2221 ft | 15 kts | 285° |
| 2026-04-25 10:20 | 36.94728 | 37.47459 | 2223 ft | 13 kts | 285° |
| 2026-04-25 10:20 | 36.94751 | 37.47353 | 2224 ft | 12 kts | 285° |
| 2026-04-25 10:20 | 36.94771 | 37.47259 | 2224 ft | 10 kts | 285° |
| 2026-04-25 10:20 | 36.94793 | 37.47157 | 2221 ft | 13 kts | 285° |
| 2026-04-25 10:21 | 36.94816 | 37.47049 | 2225 ft | 12 kts | 285° |
| 2026-04-25 10:21 | 36.94836 | 37.46954 | 2223 ft | 11 kts | 285° |
| 2026-04-25 10:21 | 36.94856 | 37.46860 | 2225 ft | 11 kts | 285° |
| 2026-04-25 10:21 | 36.94875 | 37.46770 | 2223 ft | 10 kts | 284° |
| 2026-04-25 10:22 | 36.94895 | 37.46672 | 2223 ft | 13 kts | 284° |
| 2026-04-25 10:22 | 36.94917 | 37.46569 | 2224 ft | 13 kts | 285° |
| 2026-04-25 10:22 | 36.94946 | 37.46436 | 2224 ft | 19 kts | 285° |
| 2026-04-25 10:22 | 36.94984 | 37.46264 | 2225 ft | 20 kts | 285° |
| 2026-04-25 10:23 | 36.95045 | 37.46183 | 2221 ft | 12 kts | 0° |
| 2026-04-25 10:23 | 36.95119 | 37.46204 | 2224 ft | 10 kts | 13° |
| 2026-04-25 10:23 | 36.95156 | 37.46263 | 2223 ft | 10 kts | 97° |
| 2026-04-25 10:23 | 36.95128 | 37.46393 | 2221 ft | 32 kts | 105° |
| 2026-04-25 10:24 | 36.94997 | 37.47001 | 2224 ft | 110 kts | 105° |
| 2026-04-25 10:24 | 36.94731 | 37.48186 | 2245 ft | 173 kts | 107° |
| 2026-04-25 10:24 | 36.94393 | 37.49700 | 3073 ft | 183 kts | 105° |
| 2026-04-25 10:24 | 36.94066 | 37.51279 | 4149 ft | 192 kts | 104° |
| 2026-04-25 10:25 | 36.93752 | 37.52872 | 5082 ft | 188 kts | 105° |
| 2026-04-25 10:25 | 36.93394 | 37.54531 | 5541 ft | 208 kts | 107° |
| 2026-04-25 10:25 | 36.92988 | 37.56375 | 5871 ft | 231 kts | 107° |
| 2026-04-25 10:25 | 36.92536 | 37.58424 | 6264 ft | 257 kts | 107° |
| 2026-04-25 10:26 | 36.92162 | 37.60664 | 6956 ft | 270 kts | 91° |
| 2026-04-25 10:26 | 36.92611 | 37.62986 | 7634 ft | 286 kts | 61° |
| 2026-04-25 10:26 | 36.93694 | 37.65125 | 8418 ft | 295 kts | 56° |
| 2026-04-25 10:26 | 36.94847 | 37.67269 | 9301 ft | 300 kts | 56° |
| 2026-04-25 10:27 | 36.96032 | 37.69452 | 10116 ft | 307 kts | 56° |
| 2026-04-25 10:27 | 36.97273 | 37.71744 | 10494 ft | 330 kts | 56° |
| 2026-04-25 10:27 | 36.98576 | 37.74170 | 10919 ft | 348 kts | 56° |
| 2026-04-25 10:27 | 36.99933 | 37.76721 | 11640 ft | 356 kts | 56° |
| 2026-04-25 10:28 | 37.01312 | 37.79329 | 12375 ft | 363 kts | 56° |
| 2026-04-25 10:28 | 37.02711 | 37.81988 | 13129 ft | 369 kts | 56° |
| 2026-04-25 10:28 | 37.04183 | 37.84651 | 13833 ft | 375 kts | 49° |
| 2026-04-25 10:28 | 37.06059 | 37.86943 | 14475 ft | 378 kts | 35° |
| 2026-04-25 10:29 | 37.08302 | 37.88645 | 15165 ft | 377 kts | 21° |
| 2026-04-25 10:29 | 37.10787 | 37.89681 | 15867 ft | 375 kts | 7° |
| 2026-04-25 10:29 | 37.13370 | 37.90019 | 16568 ft | 373 kts | 356° |
| 2026-04-25 10:29 | 37.15986 | 37.90069 | 17287 ft | 376 kts | 356° |
| 2026-04-25 10:30 | 37.18594 | 37.90116 | 18007 ft | 379 kts | 356° |
| 2026-04-25 10:30 | 37.20349 | 37.90148 | 18462 ft | 381 kts | 356° |
| 2026-04-25 10:30 | 37.23935 | 37.90217 | 19269 ft | 386 kts | 356° |
| 2026-04-25 10:30 | 37.26613 | 37.90273 | 19871 ft | 389 kts | 356° |
| 2026-04-25 10:31 | 37.29348 | 37.90329 | 20457 ft | 392 kts | 356° |
| 2026-04-25 10:31 | 37.32063 | 37.90384 | 21032 ft | 395 kts | 356° |
| 2026-04-25 10:31 | 37.34837 | 37.90455 | 21610 ft | 400 kts | 359° |
| 2026-04-25 10:31 | 37.37630 | 37.90963 | 22148 ft | 409 kts | 9° |
| 2026-04-25 10:32 | 37.40322 | 37.92125 | 22686 ft | 418 kts | 21° |
| 2026-04-25 10:32 | 37.42877 | 37.93959 | 23226 ft | 425 kts | 33° |
| 2026-04-25 10:32 | 37.45239 | 37.96256 | 23726 ft | 430 kts | 35° |
| 2026-04-25 10:32 | 37.47591 | 37.98580 | 24150 ft | 434 kts | 35° |
| 2026-04-25 10:33 | 37.49980 | 38.00936 | 24571 ft | 437 kts | 35° |
| 2026-04-25 10:33 | 37.52363 | 38.03281 | 24979 ft | 440 kts | 35° |
| 2026-04-25 10:33 | 37.54792 | 38.05673 | 25377 ft | 444 kts | 35° |
| 2026-04-25 10:33 | 37.57245 | 38.08092 | 25797 ft | 447 kts | 35° |
| 2026-04-25 10:34 | 37.59684 | 38.10499 | 26173 ft | 451 kts | 35° |
| 2026-04-25 10:34 | 37.62173 | 38.12957 | 26585 ft | 455 kts | 34° |
| 2026-04-25 10:34 | 37.64681 | 38.15442 | 26969 ft | 458 kts | 34° |
| 2026-04-25 10:34 | 37.67172 | 38.17918 | 27362 ft | 462 kts | 35° |
| 2026-04-25 10:35 | 37.69714 | 38.20448 | 27768 ft | 465 kts | 34° |
| 2026-04-25 10:35 | 37.72281 | 38.23002 | 28187 ft | 468 kts | 34° |
| 2026-04-25 10:35 | 37.74823 | 38.25531 | 28560 ft | 472 kts | 34° |
| 2026-04-25 10:35 | 37.77430 | 38.28122 | 28921 ft | 475 kts | 34° |
| 2026-04-25 10:36 | 37.80050 | 38.30724 | 29290 ft | 478 kts | 34° |
| 2026-04-25 10:36 | 37.82657 | 38.33317 | 29654 ft | 482 kts | 34° |
| 2026-04-25 10:36 | 37.85302 | 38.35955 | 30008 ft | 485 kts | 34° |
| 2026-04-25 10:36 | 37.87969 | 38.38618 | 30329 ft | 488 kts | 34° |
| 2026-04-25 10:37 | 37.90646 | 38.41294 | 30604 ft | 490 kts | 34° |
| 2026-04-25 10:37 | 37.93306 | 38.43952 | 30903 ft | 493 kts | 34° |
| 2026-04-25 10:37 | 37.96024 | 38.46663 | 31172 ft | 496 kts | 34° |
| 2026-04-25 10:37 | 37.98749 | 38.49380 | 31478 ft | 498 kts | 34° |
| 2026-04-25 10:38 | 38.01449 | 38.52076 | 31814 ft | 499 kts | 34° |
| 2026-04-25 10:38 | 38.04187 | 38.54818 | 32230 ft | 497 kts | 34° |
| 2026-04-25 10:38 | 38.06875 | 38.57518 | 32651 ft | 497 kts | 34° |
| 2026-04-25 10:38 | 38.09596 | 38.60253 | 33043 ft | 496 kts | 33° |
| 2026-04-25 10:39 | 38.12315 | 38.62982 | 33437 ft | 496 kts | 33° |
| 2026-04-25 10:39 | 38.15026 | 38.65703 | 33851 ft | 496 kts | 33° |
| 2026-04-25 10:39 | 38.17698 | 38.68388 | 34211 ft | 496 kts | 33° |
| 2026-04-25 10:39 | 38.20412 | 38.71122 | 34531 ft | 496 kts | 33° |
| 2026-04-25 10:40 | 38.23095 | 38.73828 | 34845 ft | 495 kts | 33° |
| 2026-04-25 10:40 | 38.25803 | 38.76562 | 35151 ft | 495 kts | 33° |
| 2026-04-25 10:40 | 38.28513 | 38.79299 | 35461 ft | 495 kts | 33° |
| 2026-04-25 10:40 | 38.30309 | 38.81114 | 35672 ft | 495 kts | 33° |
| 2026-04-25 10:41 | 38.33891 | 38.84749 | 36052 ft | 495 kts | 33° |
| 2026-04-25 10:41 | 38.36584 | 38.87495 | 36298 ft | 495 kts | 33° |
| 2026-04-25 10:41 | 38.39281 | 38.90253 | 36578 ft | 495 kts | 34° |
| 2026-04-25 10:41 | 38.41934 | 38.92976 | 36860 ft | 495 kts | 34° |
| 2026-04-25 10:42 | 38.44636 | 38.95749 | 37049 ft | 496 kts | 34° |
| 2026-04-25 10:42 | 38.49985 | 39.01233 | 37103 ft | 492 kts | 33° |
| 2026-04-25 10:43 | 38.55363 | 39.06672 | 37109 ft | 491 kts | 33° |
| 2026-04-25 10:43 | 38.60686 | 39.12047 | 37111 ft | 491 kts | 33° |
| 2026-04-25 10:44 | 38.66043 | 39.17495 | 37110 ft | 491 kts | 33° |
| 2026-04-25 10:44 | 38.71728 | 39.22093 | 37121 ft | 478 kts | 17° |
| 2026-04-25 10:45 | 38.76899 | 39.24261 | 37109 ft | 465 kts | 5° |
| 2026-04-25 10:45 | 38.83204 | 39.26161 | 37118 ft | 465 kts | 5° |
| 2026-04-25 10:46 | 38.89508 | 39.28074 | 37120 ft | 465 kts | 5° |
| 2026-04-25 10:46 | 38.95810 | 39.29996 | 37121 ft | 465 kts | 5° |
| 2026-04-25 10:47 | 39.02102 | 39.31907 | 37112 ft | 465 kts | 5° |
| 2026-04-25 10:47 | 39.08418 | 39.33803 | 37123 ft | 466 kts | 5° |
| 2026-04-25 10:48 | 39.14736 | 39.35710 | 37140 ft | 466 kts | 5° |
| 2026-04-25 10:48 | 39.21056 | 39.37625 | 37158 ft | 467 kts | 5° |
| 2026-04-25 10:49 | 39.27387 | 39.39545 | 37158 ft | 466 kts | 5° |
| 2026-04-25 10:49 | 39.33670 | 39.41461 | 37161 ft | 467 kts | 5° |
| 2026-04-25 10:50 | 39.39999 | 39.43395 | 36904 ft | 468 kts | 5° |
| 2026-04-25 10:50 | 39.43171 | 39.44366 | 36652 ft | 468 kts | 5° |
| 2026-04-25 10:50 | 39.46335 | 39.45334 | 36409 ft | 467 kts | 5° |
| 2026-04-25 10:50 | 39.49498 | 39.46297 | 36150 ft | 467 kts | 5° |
| 2026-04-25 10:51 | 39.52660 | 39.47260 | 35905 ft | 467 kts | 4° |
| 2026-04-25 10:51 | 39.55817 | 39.48229 | 35669 ft | 466 kts | 5° |
| 2026-04-25 10:51 | 39.58969 | 39.49209 | 35422 ft | 464 kts | 4° |
| 2026-04-25 10:51 | 39.62101 | 39.50188 | 35167 ft | 461 kts | 5° |
| 2026-04-25 10:52 | 39.65219 | 39.51168 | 34952 ft | 460 kts | 4° |
| 2026-04-25 10:52 | 39.68326 | 39.52141 | 34710 ft | 458 kts | 4° |
| 2026-04-25 10:52 | 39.71418 | 39.53086 | 34476 ft | 454 kts | 2° |
| 2026-04-25 10:52 | 39.74494 | 39.53878 | 34109 ft | 448 kts | 359° |
| 2026-04-25 10:53 | 39.77554 | 39.54521 | 33527 ft | 443 kts | 358° |
| 2026-04-25 10:53 | 39.80562 | 39.55069 | 33018 ft | 440 kts | 357° |
| 2026-04-25 10:53 | 39.83586 | 39.55593 | 32484 ft | 437 kts | 357° |
| 2026-04-25 10:53 | 39.86595 | 39.56130 | 31949 ft | 436 kts | 358° |
| 2026-04-25 10:54 | 39.89593 | 39.56694 | 31432 ft | 434 kts | 358° |
| 2026-04-25 10:54 | 39.91610 | 39.57092 | 31086 ft | 433 kts | 358° |
| 2026-04-25 10:54 | 39.95542 | 39.57900 | 30415 ft | 430 kts | 359° |
| 2026-04-25 10:54 | 39.98490 | 39.58530 | 29869 ft | 426 kts | 359° |
| 2026-04-25 10:55 | 40.01390 | 39.59164 | 29389 ft | 421 kts | 359° |
| 2026-04-25 10:55 | 40.04271 | 39.59796 | 28924 ft | 417 kts | 359° |
| 2026-04-25 10:55 | 40.07114 | 39.60415 | 28457 ft | 412 kts | 359° |
| 2026-04-25 10:55 | 40.09930 | 39.61019 | 28002 ft | 408 kts | 359° |
| 2026-04-25 10:56 | 40.12722 | 39.61603 | 27543 ft | 404 kts | 359° |
| 2026-04-25 10:56 | 40.15490 | 39.62174 | 27092 ft | 401 kts | 359° |
| 2026-04-25 10:56 | 40.18238 | 39.62740 | 26628 ft | 398 kts | 359° |
| 2026-04-25 10:56 | 40.20965 | 39.63299 | 26164 ft | 395 kts | 359° |
| 2026-04-25 10:57 | 40.23678 | 39.63857 | 25685 ft | 393 kts | 360° |
| 2026-04-25 10:57 | 40.26379 | 39.64418 | 25215 ft | 393 kts | 0° |
| 2026-04-25 10:57 | 40.29077 | 39.64979 | 24714 ft | 393 kts | 0° |
| 2026-04-25 10:57 | 40.31777 | 39.65537 | 24209 ft | 393 kts | 0° |
| 2026-04-25 10:58 | 40.34475 | 39.66098 | 23707 ft | 393 kts | 1° |
| 2026-04-25 10:58 | 40.37152 | 39.66655 | 23150 ft | 393 kts | 1° |
| 2026-04-25 10:58 | 40.39846 | 39.67218 | 22652 ft | 391 kts | 1° |
| 2026-04-25 10:58 | 40.42532 | 39.67779 | 22153 ft | 390 kts | 1° |
| 2026-04-25 10:59 | 40.45222 | 39.68313 | 21654 ft | 390 kts | 1° |
| 2026-04-25 10:59 | 40.47891 | 39.68598 | 21164 ft | 378 kts | 350° |
| 2026-04-25 10:59 | 40.50436 | 39.68134 | 20692 ft | 362 kts | 336° |
| 2026-04-25 10:59 | 40.52760 | 39.67018 | 20244 ft | 350 kts | 325° |
| 2026-04-25 11:00 | 40.54829 | 39.65422 | 19805 ft | 343 kts | 319° |
| 2026-04-25 11:00 | 40.56857 | 39.63761 | 19379 ft | 343 kts | 320° |
| 2026-04-25 11:00 | 40.58883 | 39.62110 | 18934 ft | 342 kts | 320° |
| 2026-04-25 11:00 | 40.60883 | 39.60485 | 18493 ft | 341 kts | 320° |
| 2026-04-25 11:01 | 40.62905 | 39.58841 | 17986 ft | 339 kts | 320° |
| 2026-04-25 11:01 | 40.64874 | 39.57248 | 17582 ft | 328 kts | 320° |
| 2026-04-25 11:01 | 40.66807 | 39.55683 | 17163 ft | 324 kts | 320° |
| 2026-04-25 11:01 | 40.68730 | 39.54117 | 16752 ft | 325 kts | 320° |
| 2026-04-25 11:02 | 40.70524 | 39.52650 | 16374 ft | 325 kts | 320° |
| 2026-04-25 11:02 | 40.72444 | 39.51073 | 15961 ft | 323 kts | 320° |
| 2026-04-25 11:02 | 40.74304 | 39.49554 | 15599 ft | 314 kts | 320° |
| 2026-04-25 11:02 | 40.76164 | 39.48034 | 15208 ft | 314 kts | 320° |
| 2026-04-25 11:03 | 40.78012 | 39.46520 | 14826 ft | 311 kts | 320° |
| 2026-04-25 11:03 | 40.79859 | 39.45007 | 14442 ft | 312 kts | 320° |
| 2026-04-25 11:03 | 40.81708 | 39.43493 | 14064 ft | 311 kts | 320° |
| 2026-04-25 11:03 | 40.83547 | 39.41985 | 13654 ft | 311 kts | 321° |
| 2026-04-25 11:04 | 40.85384 | 39.40476 | 13258 ft | 310 kts | 321° |
| 2026-04-25 11:04 | 40.87216 | 39.38970 | 12868 ft | 309 kts | 321° |
| 2026-04-25 11:04 | 40.89020 | 39.37489 | 12485 ft | 307 kts | 322° |
| 2026-04-25 11:04 | 40.90247 | 39.36482 | 12240 ft | 307 kts | 322° |
| 2026-04-25 11:05 | 40.92649 | 39.34507 | 11618 ft | 309 kts | 322° |
| 2026-04-25 11:05 | 40.94489 | 39.32989 | 11136 ft | 312 kts | 323° |
| 2026-04-25 11:05 | 40.96464 | 39.31726 | 10719 ft | 317 kts | 334° |
| 2026-04-25 11:05 | 40.98487 | 39.30680 | 10583 ft | 307 kts | 334° |
| 2026-04-25 11:06 | 41.00440 | 39.29673 | 10209 ft | 296 kts | 334° |
| 2026-04-25 11:06 | 41.02348 | 39.28683 | 9589 ft | 293 kts | 334° |
| 2026-04-25 11:06 | 41.04284 | 39.27888 | 8966 ft | 293 kts | 350° |
| 2026-04-25 11:06 | 41.06330 | 39.27975 | 8351 ft | 293 kts | 8° |
| 2026-04-25 11:07 | 41.08222 | 39.28836 | 7710 ft | 292 kts | 26° |
| 2026-04-25 11:07 | 41.09880 | 39.30411 | 6929 ft | 295 kts | 44° |
| 2026-04-25 11:07 | 41.11111 | 39.32591 | 6243 ft | 300 kts | 62° |
| 2026-04-25 11:07 | 41.11770 | 39.35172 | 6004 ft | 291 kts | 80° |
| 2026-04-25 11:08 | 41.11849 | 39.37791 | 5825 ft | 279 kts | 97° |
| 2026-04-25 11:08 | 41.11415 | 39.40238 | 5689 ft | 266 kts | 112° |
| 2026-04-25 11:08 | 41.10734 | 39.42459 | 5565 ft | 254 kts | 113° |
| 2026-04-25 11:08 | 41.10085 | 39.44593 | 5442 ft | 245 kts | 112° |
| 2026-04-25 11:09 | 41.09451 | 39.46668 | 5323 ft | 239 kts | 113° |
| 2026-04-25 11:09 | 41.08840 | 39.48665 | 5259 ft | 229 kts | 112° |
| 2026-04-25 11:09 | 41.08243 | 39.50614 | 5025 ft | 228 kts | 112° |
| 2026-04-25 11:09 | 41.07644 | 39.52566 | 4704 ft | 228 kts | 112° |
| 2026-04-25 11:10 | 41.07056 | 39.54484 | 4367 ft | 222 kts | 112° |
| 2026-04-25 11:10 | 41.06671 | 39.55736 | 4148 ft | 219 kts | 112° |
| 2026-04-25 11:10 | 41.05913 | 39.58204 | 3718 ft | 213 kts | 112° |
| 2026-04-25 11:10 | 41.05361 | 39.60001 | 3411 ft | 208 kts | 112° |
| 2026-04-25 11:11 | 41.04829 | 39.61730 | 3125 ft | 201 kts | 112° |
| 2026-04-25 11:11 | 41.04319 | 39.63386 | 2805 ft | 188 kts | 112° |
| 2026-04-25 11:11 | 41.03841 | 39.64937 | 2551 ft | 174 kts | 112° |
| 2026-04-25 11:11 | 41.03411 | 39.66331 | 2295 ft | 155 kts | 112° |
| 2026-04-25 11:12 | 41.03022 | 39.67595 | 2064 ft | 143 kts | 112° |
| 2026-04-25 11:12 | 41.02656 | 39.68781 | 1821 ft | 136 kts | 112° |
| 2026-04-25 11:12 | 41.02302 | 39.69927 | 1566 ft | 132 kts | 112° |
| 2026-04-25 11:12 | 41.01958 | 39.71041 | 1333 ft | 130 kts | 112° |
| 2026-04-25 11:13 | 41.01618 | 39.72142 | 1091 ft | 128 kts | 112° |
| 2026-04-25 11:13 | 41.01283 | 39.73229 | 903 ft | 127 kts | 112° |
| 2026-04-25 11:13 | 41.00953 | 39.74294 | 725 ft | 126 kts | 113° |
| 2026-04-25 11:13 | 41.00618 | 39.75376 | 553 ft | 127 kts | 113° |
| 2026-04-25 11:14 | 41.00285 | 39.76453 | 364 ft | 127 kts | 112° |
| 2026-04-25 11:14 | 40.99971 | 39.77488 | 144 ft | 125 kts | 112° |
| 2026-04-25 11:14 | 40.99672 | 39.78449 | 108 ft | 86 kts | 113° |
| 2026-04-25 11:14 | 40.99543 | 39.78860 | 102 ft | 31 kts | 112° |
| 2026-04-25 11:15 | 40.99467 | 39.79112 | 103 ft | 28 kts | 111° |
| 2026-04-25 11:15 | 40.99399 | 39.79241 | 106 ft | 11 kts | 175° |
| 2026-04-25 11:15 | 40.99356 | 39.79182 | 104 ft | 10 kts | 232° |
| 2026-04-25 11:15 | 40.99327 | 39.79096 | 102 ft | 10 kts | 272° |
| 2026-04-25 11:16 | 40.99397 | 39.78854 | 115 ft | 20 kts | 292° |
| 2026-04-25 11:16 | 40.99451 | 39.78684 | 114 ft | 19 kts | 292° |
| 2026-04-25 11:16 | 40.99500 | 39.78525 | 115 ft | 18 kts | 292° |
| 2026-04-25 11:17 | 40.99545 | 39.78377 | 115 ft | 17 kts | 291° |
| 2026-04-25 11:17 | 40.99587 | 39.78240 | 115 ft | 16 kts | 294° |
| 2026-04-25 11:17 | 40.99627 | 39.78117 | 115 ft | 11 kts | 292° |
| 2026-04-25 11:17 | 40.99612 | 39.78050 | 115 ft | 7 kts | 208° |
| 2026-04-25 11:18 | 40.99585 | 39.78037 | 116 ft | 0 kts | 201° |
| 2026-04-25 11:18 | 40.99584 | 39.78036 | 113 ft | 0 kts | 201° |